createdAt,value
2019-03-16T00:00:07.262Z,1.05
2019-03-16T00:02:38.094Z,1.27
2019-03-16T00:05:07.524Z,1.45
2019-03-16T00:07:36.659Z,1.40
2019-03-16T00:10:06.177Z,1.15
2019-03-16T00:12:35.407Z,1.47
2019-03-16T00:15:05.234Z,1.47
2019-03-16T00:17:34.372Z,1.22
2019-03-16T00:20:05.086Z,1.35
2019-03-16T00:22:34.215Z,1.40
2019-03-16T00:25:03.938Z,1.75
2019-03-16T00:27:33.082Z,1.75
2019-03-16T00:30:08.773Z,1.57
2019-03-16T00:32:42.633Z,1.55
2019-03-16T00:35:13.412Z,1.27
2019-03-16T00:37:42.636Z,1.62
2019-03-16T00:40:12.249Z,1.30
2019-03-16T00:42:41.394Z,1.10
2019-03-16T00:45:11.900Z,1.00
2019-03-16T00:47:41.151Z,1.70
2019-03-16T00:50:10.900Z,1.32
2019-03-16T00:52:40.113Z,1.45
2019-03-16T00:55:09.646Z,1.10
2019-03-16T00:57:38.803Z,1.20
2019-03-16T01:00:09.609Z,1.70
2019-03-16T01:02:38.753Z,1.40
2019-03-16T01:05:07.979Z,1.37
2019-03-16T01:07:37.210Z,1.17
2019-03-16T01:10:07.559Z,1.12
2019-03-16T01:12:36.697Z,1.20
2019-03-16T01:15:07.535Z,1.32
2019-03-16T01:17:36.696Z,1.25
2019-03-16T01:20:07.367Z,1.57
2019-03-16T01:22:36.508Z,2.15
2019-03-16T01:25:06.021Z,1.10
2019-03-16T01:27:35.184Z,1.00
2019-03-16T01:30:08.903Z,1.37
2019-03-16T01:32:40.960Z,1.17
2019-03-16T01:35:08.866Z,1.60
2019-03-16T01:37:38.021Z,1.07
2019-03-16T01:40:10.719Z,1.95
2019-03-16T01:42:39.941Z,1.67
2019-03-16T01:45:09.858Z,1.42
2019-03-16T01:47:39.010Z,1.52
2019-03-16T01:50:08.913Z,1.40
2019-03-16T01:52:38.067Z,1.20
2019-03-16T01:55:08.098Z,1.80
2019-03-16T01:57:37.319Z,1.50
2019-03-16T02:00:12.111Z,1.90
2019-03-16T02:02:54.572Z,1.50
2019-03-16T02:05:12.139Z,1.52
2019-03-16T02:07:41.363Z,1.22
2019-03-16T02:10:10.786Z,1.47
2019-03-16T02:12:39.942Z,0.98
2019-03-16T02:15:09.208Z,1.40
2019-03-16T02:17:38.571Z,1.37
2019-03-16T02:20:08.393Z,1.45
2019-03-16T02:22:37.553Z,1.75
2019-03-16T02:25:07.362Z,1.50
2019-03-16T02:27:36.600Z,1.87
2019-03-16T02:30:06.821Z,2.00
2019-03-16T02:32:35.972Z,0.85
2019-03-16T02:35:06.091Z,1.40
2019-03-16T02:37:35.297Z,1.72
2019-03-16T02:40:05.240Z,1.20
2019-03-16T02:42:34.454Z,1.57
2019-03-16T02:45:04.378Z,2.08
2019-03-16T02:47:33.536Z,1.62
2019-03-16T02:50:03.328Z,1.42
2019-03-16T02:52:32.494Z,1.42
2019-03-16T02:55:01.701Z,1.02
2019-03-16T02:57:30.942Z,0.75
2019-03-16T03:00:00.056Z,1.50
2019-03-16T03:02:29.401Z,0.82
2019-03-16T03:04:58.560Z,1.40
2019-03-16T03:07:27.728Z,1.10
2019-03-16T03:09:56.854Z,1.35
2019-03-16T03:12:26.005Z,2.60
2019-03-16T03:14:55.162Z,1.75
2019-03-16T03:17:24.324Z,1.70
2019-03-16T03:19:53.460Z,1.60
2019-03-16T03:22:22.624Z,0.85
2019-03-16T03:24:51.779Z,1.17
2019-03-16T03:27:20.937Z,1.70
2019-03-16T03:29:50.092Z,1.27
2019-03-16T03:32:19.239Z,1.50
2019-03-16T03:34:48.397Z,1.57
2019-03-16T03:37:17.616Z,0.98
2019-03-16T03:39:46.768Z,1.42
2019-03-16T03:42:15.913Z,1.52
2019-03-16T03:44:45.070Z,1.57
2019-03-16T03:47:14.196Z,1.22
2019-03-16T03:49:43.350Z,1.20
2019-03-16T03:52:12.486Z,1.50
2019-03-16T03:54:41.643Z,1.15
2019-03-16T03:57:11.841Z,0.90
2019-03-16T03:59:42.074Z,1.55
2019-03-16T04:02:11.204Z,1.50
2019-03-16T04:04:40.358Z,1.47
2019-03-16T04:07:09.574Z,1.42
2019-03-16T04:09:38.717Z,1.62
2019-03-16T04:12:07.889Z,1.40
2019-03-16T04:14:37.027Z,1.40
2019-03-16T04:17:06.166Z,1.82
2019-03-16T04:19:35.348Z,1.10
2019-03-16T04:22:04.493Z,2.15
2019-03-16T04:24:34.653Z,1.30
2019-03-16T04:27:15.146Z,1.72
2019-03-16T04:29:34.595Z,1.82
2019-03-16T04:32:03.746Z,1.60
2019-03-16T04:34:32.903Z,1.72
2019-03-16T04:37:02.044Z,1.40
2019-03-16T04:39:31.271Z,1.40
2019-03-16T04:42:00.397Z,1.05
2019-03-16T04:44:31.208Z,1.62
2019-03-16T04:47:00.646Z,1.77
2019-03-16T04:49:29.903Z,1.45
2019-03-16T04:51:59.060Z,1.40
2019-03-16T04:54:29.282Z,1.50
2019-03-16T04:56:58.651Z,1.20
2019-03-16T04:59:27.795Z,2.08
2019-03-16T05:01:56.951Z,1.98
2019-03-16T05:04:26.105Z,1.20
2019-03-16T05:06:55.258Z,1.17
2019-03-16T05:09:24.427Z,1.30
2019-03-16T05:11:53.576Z,1.87
2019-03-16T05:14:22.723Z,1.32
2019-03-16T05:16:51.870Z,1.30
2019-03-16T05:19:21.412Z,1.47
2019-03-16T05:21:50.567Z,1.92
2019-03-16T05:24:19.712Z,1.20
2019-03-16T05:26:48.856Z,1.85
2019-03-16T05:29:41.267Z,1.70
2019-03-16T05:32:10.600Z,1.47
2019-03-16T05:35:05.129Z,1.87
2019-03-16T05:37:34.348Z,2.02
2019-03-16T05:40:03.663Z,1.67
2019-03-16T05:42:32.906Z,1.55
2019-03-16T05:45:02.166Z,1.30
2019-03-16T05:47:31.391Z,1.75
2019-03-16T05:50:00.533Z,2.12
2019-03-16T05:52:29.765Z,1.50
2019-03-16T05:54:58.884Z,1.52
2019-03-16T05:57:28.027Z,2.05
2019-03-16T05:59:57.175Z,1.80
2019-03-16T06:02:26.325Z,1.67
2019-03-16T06:04:55.481Z,1.80
2019-03-16T06:07:24.685Z,1.25
2019-03-16T06:09:54.049Z,1.55
2019-03-16T06:12:23.209Z,2.45
2019-03-16T06:14:52.354Z,1.82
2019-03-16T06:17:21.527Z,1.65
2019-03-16T06:19:50.669Z,1.60
2019-03-16T06:22:19.809Z,1.32
2019-03-16T06:24:48.953Z,1.77
2019-03-16T06:27:18.114Z,1.37
2019-03-16T06:29:47.249Z,1.07
2019-03-16T06:32:16.493Z,1.62
2019-03-16T06:34:45.643Z,1.47
2019-03-16T06:37:14.799Z,1.30
2019-03-16T06:39:43.942Z,2.00
2019-03-16T06:42:13.108Z,1.17
2019-03-16T06:44:42.282Z,1.55
2019-03-16T06:47:11.432Z,1.40
2019-03-16T06:49:40.574Z,1.22
2019-03-16T06:52:09.716Z,2.67
2019-03-16T06:54:38.864Z,1.25
2019-03-16T06:57:08.026Z,1.60
2019-03-16T06:59:37.453Z,1.67
2019-03-16T07:02:06.615Z,1.80
2019-03-16T07:04:35.764Z,3.50
2019-03-16T07:07:04.998Z,1.92
2019-03-16T07:09:35.208Z,2.30
2019-03-16T07:12:04.371Z,2.10
2019-03-16T07:14:33.576Z,1.90
2019-03-16T07:17:02.736Z,1.80
2019-03-16T07:19:33.948Z,0.90
2019-03-16T07:22:03.801Z,2.27
2019-03-16T07:24:32.984Z,3.25
2019-03-16T07:27:02.194Z,1.72
2019-03-16T07:29:31.338Z,2.25
2019-03-16T07:32:00.502Z,1.40
2019-03-16T07:34:29.663Z,1.37
2019-03-16T07:36:58.817Z,1.32
2019-03-16T07:39:27.976Z,2.22
2019-03-16T07:42:00.366Z,1.85
2019-03-16T07:44:27.910Z,1.60
2019-03-16T07:46:57.246Z,1.15
2019-03-16T07:49:26.457Z,1.80
2019-03-16T07:51:55.670Z,1.47
2019-03-16T07:54:24.823Z,1.80
2019-03-16T07:56:53.981Z,1.27
2019-03-16T07:59:23.128Z,2.25
2019-03-16T08:01:52.285Z,2.00
2019-03-16T08:04:21.430Z,2.15
2019-03-16T08:06:50.563Z,1.07
2019-03-16T08:09:19.882Z,2.15
2019-03-16T08:11:49.176Z,1.60
2019-03-16T08:14:18.399Z,1.30
2019-03-16T08:16:47.537Z,1.90
2019-03-16T08:19:16.686Z,2.37
2019-03-16T08:21:45.830Z,1.70
2019-03-16T08:24:15.059Z,2.70
2019-03-16T08:26:44.327Z,2.20
2019-03-16T08:29:13.816Z,1.85
2019-03-16T08:31:43.330Z,1.95
2019-03-16T08:34:12.485Z,1.95
2019-03-16T08:36:41.638Z,1.98
2019-03-16T08:39:10.796Z,1.85
2019-03-16T08:41:40.014Z,1.70
2019-03-16T08:44:09.188Z,2.30
2019-03-16T08:46:38.885Z,1.37
2019-03-16T08:49:08.055Z,1.98
2019-03-16T08:51:37.196Z,2.12
2019-03-16T08:54:06.355Z,2.02
2019-03-16T08:56:35.485Z,1.92
2019-03-16T08:59:04.716Z,1.92
2019-03-16T09:01:33.834Z,1.22
2019-03-16T09:04:02.977Z,1.70
2019-03-16T09:06:32.204Z,1.77
2019-03-16T09:09:01.347Z,1.52
2019-03-16T09:11:30.665Z,1.67
2019-03-16T09:13:59.863Z,1.47
2019-03-16T09:16:29.016Z,1.17
2019-03-16T09:18:58.161Z,1.72
2019-03-16T09:21:27.313Z,1.55
2019-03-16T09:23:56.467Z,1.75
2019-03-16T09:26:25.633Z,1.17
2019-03-16T09:29:00.273Z,1.85
2019-03-16T09:31:26.642Z,1.92
2019-03-16T09:33:55.857Z,1.95
2019-03-16T09:36:25.023Z,1.40
2019-03-16T09:38:54.171Z,2.37
2019-03-16T09:41:23.353Z,1.45
2019-03-16T09:43:53.029Z,1.40
2019-03-16T09:46:22.192Z,1.90
2019-03-16T09:48:51.326Z,2.27
2019-03-16T09:51:20.487Z,2.35
2019-03-16T09:53:49.631Z,1.62
2019-03-16T09:56:18.777Z,2.37
2019-03-16T09:58:47.889Z,1.32
2019-03-16T10:01:17.055Z,2.10
2019-03-16T10:03:46.195Z,1.77
2019-03-16T10:06:15.353Z,1.92
2019-03-16T10:08:44.473Z,1.72
2019-03-16T10:11:13.644Z,1.82
2019-03-16T10:13:42.872Z,2.00
2019-03-16T10:16:12.010Z,2.22
2019-03-16T10:18:41.159Z,1.55
2019-03-16T10:21:10.309Z,2.15
2019-03-16T10:23:39.467Z,1.90
2019-03-16T10:26:08.643Z,2.20
2019-03-16T10:28:43.502Z,2.15
2019-03-16T10:31:08.779Z,2.00
2019-03-16T10:33:37.906Z,1.90
2019-03-16T10:36:07.052Z,1.80
2019-03-16T10:38:38.431Z,3.05
2019-03-16T10:41:08.121Z,2.30
2019-03-16T10:43:37.295Z,1.52
2019-03-16T10:46:08.473Z,1.27
2019-03-16T10:48:37.219Z,2.00
2019-03-16T10:51:06.365Z,1.57
2019-03-16T10:53:35.524Z,1.50
2019-03-16T10:56:04.745Z,1.47
2019-03-16T10:58:33.889Z,2.17
2019-03-16T11:01:45.770Z,1.47
2019-03-16T11:04:14.981Z,1.92
2019-03-16T11:06:45.384Z,1.15
2019-03-16T11:09:14.612Z,1.92
2019-03-16T11:11:43.768Z,1.77
2019-03-16T11:14:12.908Z,1.65
2019-03-16T11:16:42.138Z,1.75
2019-03-16T11:19:11.289Z,1.70
2019-03-16T11:21:40.416Z,2.30
2019-03-16T11:24:09.811Z,2.15
2019-03-16T11:26:39.060Z,2.30
2019-03-16T11:29:09.177Z,2.25
2019-03-16T11:31:38.731Z,2.95
2019-03-16T11:34:07.897Z,4.03
2019-03-16T11:36:37.117Z,2.62
2019-03-16T11:39:06.813Z,2.75
2019-03-16T11:41:37.054Z,2.37
2019-03-16T11:44:06.197Z,2.30
2019-03-16T11:46:35.334Z,2.25
2019-03-16T11:49:04.495Z,2.80
2019-03-16T11:51:34.632Z,1.87
2019-03-16T11:54:03.858Z,2.15
2019-03-16T11:56:33.009Z,2.30
2019-03-16T11:59:02.176Z,1.42
2019-03-16T12:01:32.508Z,2.37
2019-03-16T12:04:01.805Z,2.83
2019-03-16T12:06:30.894Z,2.50
2019-03-16T12:09:00.188Z,2.33
2019-03-16T12:11:29.610Z,2.08
2019-03-16T12:13:59.867Z,1.95
2019-03-16T12:16:29.066Z,1.77
2019-03-16T12:18:58.216Z,2.10
2019-03-16T12:21:27.404Z,1.92
2019-03-16T12:23:56.575Z,2.02
2019-03-16T12:26:25.731Z,1.90
2019-03-16T12:28:54.876Z,2.00
2019-03-16T12:31:24.004Z,2.08
2019-03-16T12:33:53.151Z,1.32
2019-03-16T12:36:22.290Z,1.77
2019-03-16T12:38:51.497Z,1.87
2019-03-16T12:41:20.621Z,1.90
2019-03-16T12:43:49.837Z,2.02
2019-03-16T12:46:18.965Z,2.33
2019-03-16T12:48:48.126Z,2.62
2019-03-16T12:51:17.283Z,2.45
2019-03-16T12:53:46.424Z,1.95
2019-03-16T12:56:15.571Z,1.77
2019-03-16T12:58:44.722Z,2.42
2019-03-16T13:01:13.888Z,2.52
2019-03-16T13:03:43.029Z,3.05
2019-03-16T13:06:15.785Z,2.85
2019-03-16T13:08:44.950Z,2.87
2019-03-16T13:11:14.101Z,5.12
2019-03-16T13:13:43.254Z,1.65
2019-03-16T13:16:12.454Z,5.03
2019-03-16T13:18:41.691Z,3.05
2019-03-16T13:21:10.855Z,4.00
2019-03-16T13:23:40.267Z,3.52
2019-03-16T13:26:09.690Z,2.27
2019-03-16T13:28:39.223Z,2.12
2019-03-16T13:31:08.739Z,2.10
2019-03-16T13:33:37.995Z,2.20
2019-03-16T13:36:07.703Z,2.50
2019-03-16T13:39:02.070Z,2.22
2019-03-16T13:41:38.424Z,2.40
2019-03-16T13:44:07.807Z,2.30
2019-03-16T13:46:38.039Z,2.50
2019-03-16T13:49:07.198Z,1.90
2019-03-16T13:51:36.341Z,2.20
2019-03-16T13:54:05.499Z,2.42
2019-03-16T13:56:34.722Z,2.85
2019-03-16T13:59:03.902Z,2.05
2019-03-16T14:01:33.335Z,2.33
2019-03-16T14:04:03.180Z,2.85
2019-03-16T14:06:32.507Z,2.77
2019-03-16T14:09:01.964Z,3.47
2019-03-16T14:11:31.345Z,2.55
2019-03-16T14:14:00.645Z,1.98
2019-03-16T14:16:30.009Z,2.65
2019-03-16T14:18:59.819Z,3.45
2019-03-16T14:21:29.047Z,3.30
2019-03-16T14:23:59.308Z,2.42
2019-03-16T14:26:28.441Z,2.20
2019-03-16T14:28:57.694Z,3.00
2019-03-16T14:31:26.830Z,2.50
2019-03-16T14:33:55.969Z,1.70
2019-03-16T14:36:25.102Z,2.65
2019-03-16T14:38:54.322Z,2.17
2019-03-16T14:41:23.551Z,2.58
2019-03-16T14:43:53.131Z,1.90
2019-03-16T15:00:19.847Z,2.40
2019-03-16T15:02:50.521Z,2.60
2019-03-16T15:05:21.022Z,2.45
2019-03-16T15:07:51.493Z,2.87
2019-03-16T15:10:22.025Z,1.62
2019-03-16T15:12:52.452Z,1.70
2019-03-16T15:15:22.967Z,2.47
2019-03-16T15:17:53.482Z,2.33
2019-03-16T15:20:23.917Z,1.90
2019-03-16T15:22:54.507Z,1.80
2019-03-16T15:25:25.063Z,2.20
2019-03-16T15:27:55.551Z,1.87
2019-03-16T15:30:26.089Z,1.95
2019-03-16T15:33:00.294Z,2.35
2019-03-16T15:35:30.204Z,2.02
2019-03-16T15:38:00.721Z,2.10
2019-03-16T15:40:31.343Z,2.00
2019-03-16T15:43:01.876Z,2.65
2019-03-16T15:45:32.481Z,3.25
2019-03-16T15:48:03.098Z,1.87
2019-03-16T15:50:34.017Z,1.98
2019-03-16T15:53:04.545Z,2.37
2019-03-16T15:55:35.164Z,2.00
2019-03-16T15:58:08.429Z,3.77
2019-03-16T16:00:39.052Z,2.30
2019-03-16T16:03:09.646Z,2.10
2019-03-16T16:05:40.187Z,2.40
2019-03-16T16:08:10.757Z,2.65
2019-03-16T16:10:41.380Z,1.90
2019-03-16T16:13:13.951Z,1.82
2019-03-16T16:15:44.688Z,2.15
2019-03-16T16:18:15.205Z,3.12
2019-03-16T16:20:46.059Z,2.72
2019-03-16T16:23:16.672Z,2.98
2019-03-16T16:25:47.145Z,3.17
2019-03-16T16:28:18.727Z,3.47
2019-03-16T16:30:49.387Z,4.05
2019-03-16T16:33:19.977Z,4.78
2019-03-16T16:35:50.538Z,3.40
2019-03-16T16:38:20.965Z,4.22
2019-03-16T16:40:51.456Z,2.55
2019-03-16T16:43:23.052Z,2.80
2019-03-16T16:45:53.651Z,3.20
2019-03-16T16:48:24.280Z,3.30
2019-03-16T16:50:54.915Z,3.22
2019-03-16T16:53:25.608Z,3.30
2019-03-16T16:55:56.592Z,3.85
2019-03-16T16:58:27.556Z,2.22
2019-03-16T17:00:58.935Z,2.60
2019-03-16T17:03:29.583Z,2.90
2019-03-16T17:06:01.149Z,7.10
2019-03-16T17:08:31.923Z,2.85
2019-03-16T17:11:02.480Z,3.30
2019-03-16T17:13:33.602Z,4.35
2019-03-16T17:16:05.329Z,2.98
2019-03-16T17:18:36.783Z,3.95
2019-03-16T17:21:07.711Z,5.70
2019-03-16T17:23:38.920Z,5.62
2019-03-16T17:26:09.762Z,6.28
2019-03-16T17:28:40.611Z,5.75
2019-03-16T17:31:12.861Z,10.13
2019-03-16T17:33:43.679Z,8.65
2019-03-16T17:36:14.755Z,11.75
2019-03-16T17:38:45.470Z,6.92
2019-03-16T17:41:16.032Z,8.30
2019-03-16T17:43:46.754Z,9.63
2019-03-16T17:46:18.932Z,17.62
2019-03-16T17:48:49.616Z,8.65
2019-03-16T17:51:20.211Z,7.10
2019-03-16T17:53:50.813Z,7.17
2019-03-16T17:56:21.419Z,8.68
2019-03-16T17:58:51.919Z,14.90
2019-03-16T18:01:22.554Z,13.25
2019-03-16T18:03:53.218Z,10.40
2019-03-16T18:06:23.899Z,9.15
2019-03-16T18:08:54.809Z,13.38
2019-03-16T18:11:32.470Z,14.93
2019-03-16T18:14:02.994Z,22.85
2019-03-16T18:16:33.561Z,19.20
2019-03-16T18:19:04.221Z,20.52
2019-03-16T18:21:34.779Z,22.75
2019-03-16T18:24:05.442Z,26.50
2019-03-16T18:26:36.071Z,27.58
2019-03-16T18:29:06.564Z,26.25
2019-03-16T18:31:37.205Z,26.10
2019-03-16T18:34:07.670Z,30.40
2019-03-16T18:36:38.429Z,32.25
2019-03-16T18:39:08.997Z,33.90
2019-03-16T18:41:39.552Z,32.67
2019-03-16T18:44:10.067Z,28.30
2019-03-16T18:46:40.611Z,26.07
2019-03-16T18:49:11.118Z,24.18
2019-03-16T18:51:41.794Z,22.80
2019-03-16T18:54:12.317Z,22.00
2019-03-16T18:56:42.998Z,15.65
2019-03-16T18:59:13.478Z,13.62
2019-03-16T19:01:44.099Z,14.15
2019-03-16T19:04:14.775Z,12.63
2019-03-16T19:06:45.337Z,10.88
2019-03-16T19:09:15.777Z,11.43
2019-03-16T19:11:46.277Z,11.65
2019-03-16T19:14:16.906Z,13.28
2019-03-16T19:16:47.378Z,13.83
2019-03-16T19:19:17.881Z,14.68
2019-03-16T19:21:48.470Z,12.80
2019-03-16T19:24:18.980Z,11.53
2019-03-16T19:26:49.507Z,13.13
2019-03-16T19:29:20.029Z,9.70
2019-03-16T19:31:50.628Z,9.65
2019-03-16T19:34:21.140Z,10.72
2019-03-16T19:36:51.712Z,10.00
2019-03-16T19:39:24.962Z,12.88
2019-03-16T19:41:54.568Z,11.20
2019-03-16T19:44:28.410Z,11.15
2019-03-16T19:47:02.480Z,13.30
2019-03-16T19:49:39.102Z,13.62
2019-03-16T19:52:19.071Z,14.00
2019-03-16T19:54:53.713Z,13.22
2019-03-16T19:57:27.895Z,12.85
2019-03-16T20:00:04.607Z,11.48
2019-03-16T20:02:47.316Z,12.30
2019-03-16T20:05:15.847Z,14.30
2019-03-16T20:07:51.549Z,15.25
2019-03-16T20:10:23.863Z,18.87
2019-03-16T20:12:58.842Z,24.95
2019-03-16T20:15:38.797Z,24.27
2019-03-16T20:18:12.278Z,22.62
2019-03-16T20:20:51.145Z,24.45
2019-03-16T20:26:14.893Z,21.35
2019-03-16T20:28:58.203Z,57.43
2019-03-16T20:31:46.156Z,41.95
2019-03-16T20:34:06.538Z,24.32
2019-03-16T20:36:42.176Z,14.55
2019-03-16T20:39:29.561Z,14.90
2019-03-16T20:42:05.705Z,11.05
2019-03-16T20:44:36.350Z,13.20
2019-03-16T20:47:06.973Z,16.12
2019-03-16T20:49:37.558Z,11.57
2019-03-16T20:52:08.158Z,12.53
2019-03-16T20:54:38.783Z,9.58
2019-03-16T20:57:09.387Z,10.08
2019-03-16T20:59:41.258Z,9.48
2019-03-16T21:02:11.793Z,10.65
2019-03-16T21:04:42.440Z,9.98
2019-03-16T21:07:13.001Z,12.88
2019-03-16T21:09:43.650Z,13.90
2019-03-16T21:12:14.331Z,12.30
2019-03-16T21:14:45.072Z,12.30
2019-03-16T21:17:15.657Z,10.15
2019-03-16T21:19:46.275Z,9.83
2019-03-16T21:22:16.817Z,14.93
2019-03-16T21:24:47.449Z,14.18
2019-03-16T21:27:18.034Z,12.63
2019-03-16T21:29:48.694Z,14.87
2019-03-16T21:32:19.347Z,12.47
2019-03-16T21:34:49.906Z,13.00
2019-03-16T21:37:20.501Z,12.85
2019-03-16T21:39:51.213Z,14.73
2019-03-16T21:42:21.825Z,14.55
2019-03-16T21:44:52.520Z,15.35
2019-03-16T21:47:23.059Z,19.25
2019-03-16T21:49:53.658Z,18.00
2019-03-16T21:52:24.181Z,15.72
2019-03-16T21:54:55.488Z,16.50
2019-03-16T21:57:26.097Z,15.95
2019-03-16T21:59:56.868Z,15.95
2019-03-16T22:02:27.340Z,14.50
2019-03-16T22:04:58.031Z,17.57
2019-03-16T22:07:28.631Z,15.18
2019-03-16T22:09:59.319Z,15.83
2019-03-16T22:12:29.784Z,14.73
2019-03-16T22:15:00.487Z,15.68
2019-03-16T22:17:31.086Z,14.50
2019-03-16T22:20:02.630Z,15.30
2019-03-16T22:22:33.141Z,15.25
2019-03-16T22:25:04.225Z,15.78
2019-03-16T22:27:34.721Z,17.62
2019-03-16T22:30:10.810Z,21.90
2019-03-16T22:32:41.362Z,18.55
2019-03-16T22:35:11.823Z,16.55
2019-03-16T22:37:42.307Z,16.42
2019-03-16T22:40:14.782Z,16.20
2019-03-16T22:42:45.300Z,15.30
2019-03-16T22:45:15.775Z,14.18
2019-03-16T22:47:52.528Z,14.60
2019-03-16T22:50:23.015Z,14.20
2019-03-16T22:52:53.438Z,13.25
2019-03-16T22:55:24.071Z,13.13
2019-03-16T22:57:54.509Z,13.45
2019-03-16T23:00:26.774Z,13.55
2019-03-16T23:02:58.792Z,13.30
2019-03-16T23:05:29.315Z,12.95
2019-03-16T23:07:59.760Z,11.80
2019-03-16T23:10:30.331Z,13.30
2019-03-16T23:13:00.763Z,12.63
2019-03-16T23:15:31.294Z,12.93
2019-03-16T23:18:01.823Z,14.28
2019-03-16T23:20:32.313Z,14.80
2019-03-16T23:23:02.765Z,14.07
2019-03-16T23:25:33.302Z,14.83
2019-03-16T23:28:03.799Z,13.08
2019-03-16T23:30:34.357Z,14.20
2019-03-16T23:33:04.852Z,13.98
2019-03-16T23:35:35.968Z,13.62
2019-03-16T23:38:06.495Z,14.03
2019-03-16T23:40:37.027Z,14.63
2019-03-16T23:43:07.656Z,14.55
2019-03-16T23:45:38.134Z,14.70
2019-03-16T23:48:08.626Z,12.28
2019-03-16T23:50:39.250Z,11.15
2019-03-16T23:53:09.828Z,10.50
2019-03-16T23:55:40.366Z,9.55
2019-03-16T23:58:10.913Z,9.63
